createdAt,value
2022-09-03T00:03:49.371Z,25
2022-09-03T00:08:51.020Z,23
2022-09-03T00:13:52.720Z,21
2022-09-03T00:18:54.338Z,24
2022-09-03T00:23:55.976Z,23
2022-09-03T00:28:58.820Z,23
2022-09-03T00:34:01.701Z,29
2022-09-03T00:39:03.393Z,21
2022-09-03T00:44:05.128Z,20
2022-09-03T00:49:07.082Z,25
2022-09-03T00:54:08.864Z,22
2022-09-03T00:59:10.616Z,26
2022-09-03T01:04:12.355Z,22
2022-09-03T01:09:14.040Z,22
2022-09-03T01:14:15.824Z,23
2022-09-03T01:19:17.421Z,23
2022-09-03T01:24:19.134Z,24
2022-09-03T01:29:20.866Z,29
2022-09-03T01:34:22.436Z,21
2022-09-03T01:39:24.069Z,21
2022-09-03T01:44:25.733Z,25
2022-09-03T01:49:27.384Z,20
2022-09-03T01:54:28.950Z,26
2022-09-03T01:59:30.546Z,24
2022-09-03T02:04:32.144Z,34
2022-09-03T02:09:33.737Z,27
2022-09-03T02:14:35.342Z,21
2022-09-03T02:19:36.969Z,28
2022-09-03T02:24:38.700Z,27
2022-09-03T02:29:40.291Z,27
2022-09-03T02:34:41.966Z,31
2022-09-03T02:39:43.642Z,24
2022-09-03T02:44:45.303Z,25
2022-09-03T02:49:46.920Z,23
2022-09-03T02:54:48.555Z,24
2022-09-03T02:59:50.147Z,25
2022-09-03T03:04:51.926Z,28
2022-09-03T03:09:53.503Z,21
2022-09-03T03:14:55.096Z,27
2022-09-03T03:19:56.712Z,27
2022-09-03T03:24:58.332Z,22
2022-09-03T03:29:59.912Z,20
2022-09-03T03:35:01.565Z,24
2022-09-03T03:40:03.233Z,26
2022-09-03T03:45:04.909Z,33
2022-09-03T03:50:06.525Z,22
2022-09-03T03:55:08.175Z,29
2022-09-03T04:00:09.787Z,22
2022-09-03T04:05:11.554Z,18
2022-09-03T04:10:13.264Z,25
2022-09-03T04:15:14.896Z,20
2022-09-03T04:20:16.686Z,25
2022-09-03T04:25:18.349Z,24
2022-09-03T04:30:19.945Z,20
2022-09-03T04:35:22.684Z,29
2022-09-03T04:40:24.388Z,22
2022-09-03T04:45:25.990Z,29
2022-09-03T04:50:27.632Z,22
2022-09-03T04:55:29.240Z,30
2022-09-03T05:00:30.901Z,22
2022-09-03T05:05:32.547Z,28
2022-09-03T05:10:34.168Z,23
2022-09-03T05:15:35.750Z,21
2022-09-03T05:20:37.445Z,17
2022-09-03T05:25:39.067Z,22
2022-09-03T05:30:40.658Z,21
2022-09-03T05:35:42.429Z,26
2022-09-03T05:40:44.050Z,18
2022-09-03T05:45:45.691Z,22
2022-09-03T05:50:47.313Z,18
2022-09-03T05:55:48.926Z,19
2022-09-03T06:00:50.504Z,20
2022-09-03T06:05:52.120Z,22
2022-09-03T06:10:53.735Z,25
2022-09-03T06:15:55.412Z,19
2022-09-03T06:20:57.039Z,19
2022-09-03T06:26:01.971Z,19
2022-09-03T06:31:07.030Z,23
2022-09-03T06:36:09.127Z,18
2022-09-03T06:41:10.985Z,16
2022-09-03T06:46:12.661Z,20
2022-09-03T06:51:14.494Z,18
2022-09-03T06:56:16.188Z,17
2022-09-03T07:01:17.957Z,18
2022-09-03T07:06:19.913Z,17
2022-09-03T07:11:21.575Z,13
2022-09-03T07:16:23.182Z,20
2022-09-03T07:21:24.878Z,21
2022-09-03T07:26:26.486Z,28
2022-09-03T07:31:28.257Z,26
2022-09-03T07:36:35.256Z,24
2022-09-03T07:41:37.402Z,26
2022-09-03T07:46:39.061Z,26
2022-09-03T07:51:40.717Z,24
2022-09-03T07:56:42.322Z,30
2022-09-03T08:01:43.912Z,29
2022-09-03T08:06:45.488Z,25
2022-09-03T08:11:47.066Z,28
2022-09-03T08:16:48.654Z,26
2022-09-03T08:21:50.239Z,23
2022-09-03T08:26:52.544Z,26
2022-09-03T08:31:54.652Z,24
2022-09-03T08:36:56.300Z,27
2022-09-03T08:41:58.374Z,35
2022-09-03T08:46:59.985Z,31
2022-09-03T08:52:01.558Z,30
2022-09-03T08:57:03.172Z,34
2022-09-03T09:02:04.935Z,34
2022-09-03T09:07:06.544Z,38
2022-09-03T09:12:08.123Z,38
2022-09-03T09:17:09.736Z,40
2022-09-03T09:22:11.503Z,38
2022-09-03T09:27:16.012Z,32
2022-09-03T09:32:17.807Z,43
2022-09-03T09:37:19.985Z,38
2022-09-03T09:42:21.586Z,41
2022-09-03T09:47:23.166Z,54
2022-09-03T09:52:24.780Z,52
2022-09-03T09:57:26.424Z,55
2022-09-03T10:02:28.036Z,52
2022-09-03T10:07:29.674Z,52
2022-09-03T10:12:31.255Z,49
2022-09-03T10:17:36.980Z,54
2022-09-03T10:22:39.105Z,64
2022-09-03T10:27:59.824Z,59
2022-09-03T10:33:01.677Z,64
2022-09-03T10:38:03.503Z,53
2022-09-03T10:43:05.126Z,58
2022-09-03T10:48:06.695Z,55
2022-09-03T10:53:08.305Z,61
2022-09-03T10:58:09.914Z,53
2022-09-03T11:03:11.570Z,54
2022-09-03T11:08:13.161Z,52
2022-09-03T11:13:14.802Z,44
2022-09-03T11:18:16.555Z,38
2022-09-03T11:23:18.181Z,37
2022-09-03T11:28:22.186Z,38
2022-09-03T11:33:23.830Z,37
2022-09-03T11:38:25.551Z,48
2022-09-03T11:43:27.224Z,42
2022-09-03T11:48:29.728Z,32
2022-09-03T11:53:31.321Z,34
2022-09-03T11:58:33.048Z,34
2022-09-03T12:03:34.620Z,31
2022-09-03T12:08:36.238Z,31
2022-09-03T12:13:37.872Z,31
2022-09-03T12:18:39.537Z,38
2022-09-03T12:23:41.146Z,29
2022-09-03T12:28:43.957Z,37
2022-09-03T12:33:46.355Z,33
2022-09-03T12:39:10.412Z,33
2022-09-03T12:44:13.612Z,31
2022-09-03T12:49:30.949Z,35
2022-09-03T12:54:32.829Z,34
2022-09-03T12:59:34.425Z,33
2022-09-03T13:04:36.058Z,40
2022-09-03T13:09:37.899Z,37
2022-09-03T13:14:39.603Z,37
2022-09-03T13:19:41.196Z,31
2022-09-03T13:24:42.842Z,36
2022-09-03T13:29:44.612Z,36
2022-09-03T13:34:46.184Z,35
2022-09-03T13:39:47.823Z,38
2022-09-03T13:44:49.501Z,37
2022-09-03T13:49:51.131Z,37
2022-09-03T13:54:53.896Z,47
2022-09-03T13:59:55.527Z,42
2022-09-03T14:04:57.220Z,43
2022-09-03T14:09:58.807Z,41
2022-09-03T14:15:00.492Z,41
2022-09-03T14:20:02.156Z,38
2022-09-03T14:25:03.793Z,40
2022-09-03T14:30:05.410Z,36
2022-09-03T14:35:07.075Z,41
2022-09-03T14:40:08.755Z,45
2022-09-03T14:45:15.432Z,43
2022-09-03T14:50:16.993Z,0
2022-09-03T14:55:18.629Z,47
2022-09-03T15:00:20.421Z,37
2022-09-03T15:05:22.150Z,42
2022-09-03T15:10:23.852Z,51
2022-09-03T15:15:25.446Z,41
2022-09-03T15:20:27.403Z,48
2022-09-03T15:25:28.989Z,43
2022-09-03T15:30:30.703Z,44
2022-09-03T15:35:32.284Z,41
2022-09-03T15:40:34.099Z,38
2022-09-03T15:45:35.762Z,41
2022-09-03T15:50:37.425Z,50
2022-09-03T15:55:39.037Z,42
2022-09-03T16:00:40.659Z,36
2022-09-03T16:05:42.292Z,43
2022-09-03T16:10:43.868Z,44
2022-09-03T16:15:45.565Z,40
2022-09-03T16:20:47.168Z,43
2022-09-03T16:25:48.747Z,39
2022-09-03T16:30:50.972Z,47
2022-09-03T16:35:52.535Z,42
2022-09-03T16:40:54.136Z,45
2022-09-03T16:45:55.830Z,44
2022-09-03T16:51:02.404Z,45
2022-09-03T16:56:04.038Z,47
2022-09-03T17:01:06.668Z,54
2022-09-03T17:06:08.599Z,50
2022-09-03T17:11:10.204Z,48
2022-09-03T17:16:12.446Z,46
2022-09-03T17:21:26.817Z,51
2022-09-03T17:26:28.431Z,42
2022-09-03T17:31:30.122Z,55
2022-09-03T17:36:31.944Z,51
2022-09-03T17:41:34.366Z,53
2022-09-03T17:46:36.328Z,47
2022-09-03T17:51:38.010Z,60
2022-09-03T17:56:39.615Z,52
2022-09-03T18:01:41.319Z,55
2022-09-03T18:06:42.972Z,50
2022-09-03T18:11:44.563Z,64
2022-09-03T18:16:46.321Z,46
2022-09-03T18:21:47.886Z,56
2022-09-03T18:26:49.703Z,52
2022-09-03T18:31:51.271Z,52
2022-09-03T18:36:52.987Z,50
2022-09-03T18:41:54.569Z,60
2022-09-03T18:52:27.991Z,60
2022-09-03T18:57:29.600Z,64
2022-09-03T19:02:31.354Z,56
2022-09-03T19:07:33.014Z,55
2022-09-03T19:12:34.595Z,63
2022-09-03T19:17:36.214Z,60
2022-09-03T19:22:37.849Z,65
2022-09-03T19:27:55.308Z,49
2022-09-03T19:33:00.393Z,67
2022-09-03T19:38:02.000Z,62
2022-09-03T19:43:03.553Z,62
2022-09-03T19:48:05.219Z,66
2022-09-03T19:53:06.854Z,63
2022-09-03T19:58:20.611Z,63
2022-09-03T20:03:28.004Z,61
2022-09-03T20:08:29.591Z,57
2022-09-03T20:13:31.185Z,66
2022-09-03T20:18:32.757Z,66
2022-09-03T20:23:34.344Z,57
2022-09-03T20:28:36.078Z,58
2022-09-03T20:33:37.666Z,59
2022-09-03T20:38:43.679Z,53
2022-09-03T20:43:45.268Z,59
2022-09-03T20:48:46.883Z,61
2022-09-03T20:53:48.501Z,63
2022-09-03T20:58:50.119Z,64
2022-09-03T21:03:51.729Z,61
2022-09-03T21:08:53.550Z,62
2022-09-03T21:13:55.190Z,75
2022-09-03T21:18:56.780Z,67
2022-09-03T21:23:58.380Z,64
2022-09-03T21:28:59.956Z,73
2022-09-03T21:34:01.582Z,60
2022-09-03T21:39:03.194Z,69
2022-09-03T21:44:04.802Z,69
2022-09-03T21:49:06.389Z,65
2022-09-03T21:54:08.137Z,58
2022-09-03T21:59:09.743Z,57
2022-09-03T22:04:11.490Z,66
2022-09-03T22:09:13.080Z,67
2022-09-03T22:14:14.730Z,66
2022-09-03T22:19:16.335Z,63
2022-09-03T22:24:17.944Z,66
2022-09-03T22:29:19.560Z,63
2022-09-03T22:34:21.149Z,65
2022-09-03T22:39:22.842Z,61
